Time;durP1;ratioP1;P1;durP2;ratioP2;P2;SDS_P1;SDS_P2;PMS_P1;PMS_P2;Temp;Humidity;BMP_temperature;BMP_pressure;BME280_temperature;BME280_humidity;BME280_pressure;Samples;Min_cycle;Max_cycle;Signal;HPM_P1;HPM_P2
2022/12/27 00:02:25;;;;;;;32.43;21.03;;;;;;;3.99;89.03;95891.36;1787166;80;21042;-69
2022/12/27 00:04:52;;;;;;;33.70;22.47;;;;;;;3.98;89.21;95891.80;1786978;80;20995;-69
2022/12/27 00:07:19;;;;;;;26.20;18.77;;;;;;;4.00;89.19;95893.09;1787303;80;21003;-69
2022/12/27 00:09:46;;;;;;;23.13;15.70;;;;;;;3.98;89.31;95883.96;1786822;80;21532;-69
2022/12/27 00:12:13;;;;;;;27.93;16.90;;;;;;;3.95;89.21;95893.04;1787213;80;20999;-69
2022/12/27 00:14:39;;;;;;;28.77;19.83;;;;;;;3.85;89.00;95884.22;1787096;80;20987;-69
2022/12/27 00:17:06;;;;;;;24.67;15.63;;;;;;;3.83;89.14;95896.40;1786921;80;21023;-69
2022/12/27 00:19:32;;;;;;;26.10;18.60;;;;;;;3.82;89.29;95885.92;1787284;80;20995;-69
2022/12/27 00:22:00;;;;;;;23.63;16.87;;;;;;;3.76;89.80;95890.66;1787128;80;21497;-69
2022/12/27 00:24:27;;;;;;;25.37;16.97;;;;;;;3.76;89.56;95885.87;1787070;80;20960;-69
2022/12/27 00:26:53;;;;;;;24.13;17.53;;;;;;;3.78;89.77;95882.42;1787222;80;21041;-69
2022/12/27 00:29:20;;;;;;;26.20;17.47;;;;;;;3.77;89.52;95877.16;1786989;80;21472;-69
2022/12/27 00:31:47;;;;;;;28.50;18.37;;;;;;;3.75;89.52;95869.73;1787096;80;21038;-69
2022/12/27 00:34:14;;;;;;;24.40;16.47;;;;;;;3.73;89.79;95878.88;1787029;80;20968;-69
2022/12/27 00:36:40;;;;;;;26.03;16.77;;;;;;;3.73;89.55;95875.36;1787165;80;21003;-69
2022/12/27 00:39:07;;;;;;;28.37;18.80;;;;;;;3.71;90.89;95876.67;1787150;80;21007;-69
2022/12/27 00:41:33;;;;;;;29.47;18.93;;;;;;;3.74;90.25;95882.36;1787098;80;21003;-69
2022/12/27 00:44:00;;;;;;;28.20;19.60;;;;;;;3.75;90.30;95875.83;1787063;80;20975;-69
2022/12/27 00:46:26;;;;;;;27.73;17.47;;;;;;;3.77;90.20;95877.16;1787062;80;20999;-69
2022/12/27 00:48:54;;;;;;;21.70;15.93;;;;;;;3.77;90.28;95878.03;1787106;80;21509;-69
2022/12/27 00:51:23;;;;;;;27.57;19.63;;;;;;;3.80;90.05;95873.28;1787116;80;20999;-69
2022/12/27 00:53:52;;;;;;;27.93;19.90;;;;;;;3.80;90.14;95875.45;1787088;80;21481;-69
2022/12/27 00:56:28;;;;;;;33.27;21.00;;;;;;;3.78;90.42;95884.13;1786989;80;21042;-69
2022/12/27 00:59:00;;;;;;;33.27;21.90;;;;;;;3.78;90.77;95881.11;1786986;80;20971;-69
2022/12/27 01:01:30;;;;;;;27.83;20.33;;;;;;;3.83;91.05;95885.95;1787016;80;21496;-69
2022/12/27 01:03:57;;;;;;;54.87;34.37;;;;;;;3.89;91.14;95882.10;1787050;80;21520;-69
2022/12/27 01:06:27;;;;;;;63.83;38.90;;;;;;;3.89;91.45;95878.19;1787025;80;20988;-69
2022/12/27 01:08:56;;;;;;;57.07;35.47;;;;;;;3.89;90.72;95875.58;1787084;80;21007;-69
2022/12/27 01:11:23;;;;;;;48.80;28.80;;;;;;;3.93;91.09;95876.51;1787167;80;21496;-69
2022/12/27 01:13:49;;;;;;;52.00;31.77;;;;;;;3.97;90.92;95878.27;1786706;80;21059;-69
2022/12/27 01:16:20;;;;;;;42.93;29.23;;;;;;;3.96;90.61;95876.97;1786920;80;21046;-69
2022/12/27 01:18:48;;;;;;;49.43;30.67;;;;;;;4.00;91.03;95862.63;1787186;80;21009;-69
2022/12/27 01:21:18;;;;;;;43.37;27.33;;;;;;;4.06;91.11;95866.64;1787067;80;20959;-69
2022/12/27 01:23:45;;;;;;;52.03;32.20;;;;;;;4.07;91.78;95864.89;1786846;80;21549;-69
2022/12/27 01:26:16;;;;;;;95.40;49.83;;;;;;;4.09;91.93;95856.22;1787190;80;20978;-69
2022/12/27 01:28:45;;;;;;;89.30;48.87;;;;;;;4.10;91.63;95857.09;1787132;80;21030;-69
2022/12/27 01:31:15;;;;;;;90.00;50.40;;;;;;;4.07;91.85;95842.70;1786848;80;20951;-69
2022/12/27 01:33:43;;;;;;;80.83;46.70;;;;;;;4.11;91.83;95849.28;1787107;80;20995;-69
2022/12/27 01:36:20;;;;;;;67.33;41.80;;;;;;;4.16;91.65;95848.03;1787043;80;21106;-69
2022/12/27 01:38:48;;;;;;;78.27;45.83;;;;;;;4.21;91.50;95842.83;1787074;80;21003;-69
2022/12/27 01:47:59;;;;;;;61.60;36.50;;;;;;;4.27;91.41;95837.24;1787064;80;21039;-69
2022/12/27 01:50:52;;;;;;;66.37;41.53;;;;;;;4.30;92.01;95839.87;1786980;80;20987;-69
2022/12/27 01:53:33;;;;;;;60.55;37.98;;;;;;;4.34;91.66;95842.11;1786680;80;21576;-69
2022/12/27 01:56:22;;;;;;;52.13;31.00;;;;;;;4.40;92.03;95839.54;1787030;80;21496;-69
2022/12/27 01:59:03;;;;;;;58.17;36.07;;;;;;;4.44;91.69;95845.69;1785934;80;20983;-69
2022/12/27 02:01:38;;;;;;;48.13;29.47;;;;;;;4.43;91.74;95842.61;1787877;80;21025;-69
2022/12/27 02:04:16;;;;;;;59.30;36.07;;;;;;;4.48;92.50;95844.39;1786171;80;21023;-69
2022/12/27 02:06:42;;;;;;;52.67;33.90;;;;;;;4.56;92.78;95840.53;1787044;80;21015;-69
2022/12/27 02:09:26;;;;;;;63.97;37.60;;;;;;;4.66;92.77;95845.41;1787003;80;21006;-69
2022/12/27 02:11:56;;;;;;;40.23;24.53;;;;;;;4.72;92.61;95841.13;1786814;80;21026;-69
2022/12/27 02:14:40;;;;;;;8.90;6.67;;;;;;;4.83;92.87;95840.33;1786710;80;21102;-69
2022/12/27 02:17:11;;;;;;;18.73;12.28;;;;;;;4.96;93.20;95831.70;1786959;80;21031;-69
2022/12/27 02:20:01;;;;;;;16.03;10.53;;;;;;;5.14;94.03;95827.92;1786504;80;21086;-69
2022/12/27 02:25:59;;;;;;;7.63;6.83;;;;;;;5.45;94.71;95816.75;1786809;80;21054;-69
2022/12/27 02:29:03;;;;;;;8.87;6.30;;;;;;;5.63;95.00;95815.52;1786475;80;21046;-69
2022/12/27 02:31:47;;;;;;;10.40;7.70;;;;;;;5.76;94.61;95809.89;1787123;80;21043;-69
2022/12/27 02:34:19;;;;;;;;;;;;;;;5.89;94.71;95804.25;1789811;80;21023;-69
2022/12/27 02:36:48;;;;;;;9.63;6.70;;;;;;;5.98;94.64;95801.70;1786210;80;20116;-69
2022/12/27 02:39:17;;;;;;;10.13;8.00;;;;;;;6.04;94.51;95793.41;1787238;80;21445;-69
2022/12/27 02:53:07;;;;;;;8.73;6.77;;;;;;;6.36;94.83;95783.86;1787180;80;21423;-69
2022/12/27 02:57:07;;;;;;;9.70;7.00;;;;;;;6.42;94.83;95781.23;1786711;80;20986;-69
2022/12/27 02:58:48;;;;;;;8.40;7.10;;;;;;;6.50;94.78;95779.06;1782459;80;20998;-69
2022/12/27 03:04:30;;;;;;;9.77;6.67;;;;;;;6.65;95.60;95770.33;1787141;80;21021;-69
2022/12/27 03:07:22;;;;;;;5.83;4.73;;;;;;;6.69;95.25;95764.63;1780491;80;21037;-69
2022/12/27 03:16:38;;;;;;;4.58;4.08;;;;;;;6.89;95.13;95770.72;1786900;80;21112;-69
2022/12/27 03:27:45;;;;;;;4.90;3.93;;;;;;;6.72;94.46;95764.17;1787352;80;21002;-69
2022/12/27 03:33:11;;;;;;;5.13;4.10;;;;;;;6.76;95.02;95744.53;1781307;80;21022;-69
2022/12/27 03:38:01;;;;;;;4.93;3.80;;;;;;;6.79;95.08;95752.38;1786858;80;21049;-69
2022/12/27 03:38:18;;;;;;;4.80;4.30;;;;;;;6.80;95.06;95737.94;1781469;80;21006;-69
2022/12/27 03:43:41;;;;;;;5.53;4.33;;;;;;;6.78;94.76;95749.31;1787056;80;21456;-69
2022/12/27 03:46:35;;;;;;;5.67;4.40;;;;;;;6.73;94.19;95750.66;1787262;80;21008;-69
2022/12/27 03:49:38;;;;;;;4.83;4.30;;;;;;;6.69;94.23;95754.14;1787029;80;21017;-69
2022/12/27 03:52:22;;;;;;;7.55;5.50;;;;;;;6.67;94.53;95750.20;1749699;80;21463;-69
2022/12/27 03:54:51;;;;;;;7.23;4.30;;;;;;;6.63;94.82;95752.84;1787154;80;21067;-69
2022/12/27 03:57:22;;;;;;;6.13;4.70;;;;;;;6.63;94.78;95753.72;1787380;80;20986;-69
2022/12/27 03:59:48;;;;;;;5.20;4.50;;;;;;;6.62;94.64;95758.95;1787085;80;21003;-69
2022/12/27 04:02:15;;;;;;;6.03;4.90;;;;;;;6.63;94.72;95765.95;1782572;80;20994;-69
2022/12/27 04:04:42;;;;;;;9.50;6.13;;;;;;;6.63;95.34;95781.25;1779904;80;21484;-69
2022/12/27 04:07:12;;;;;;;8.43;6.33;;;;;;;6.76;96.07;95776.86;1786967;80;21049;-69
2022/12/27 04:34:44;;;;;;;5.50;4.67;;;;;;;7.26;94.75;95813.09;1786885;80;21069;-69
2022/12/27 04:37:15;;;;;;;5.73;4.93;;;;;;;7.27;94.79;95826.19;1786818;80;21002;-69
2022/12/27 04:56:16;;;;;;;6.83;6.03;;;;;;;7.42;94.62;95809.53;1787230;80;20993;-69
2022/12/27 05:02:01;;;;;;;6.83;5.83;;;;;;;7.43;94.67;95807.77;1787159;80;21530;-69
2022/12/27 05:03:56;;;;;;;7.65;6.25;;;;;;;7.33;94.58;95808.23;1786829;80;21097;-69
2022/12/27 05:06:23;;;;;;;8.87;6.40;;;;;;;7.29;94.79;95816.56;1787261;80;21005;-69
2022/12/27 05:14:20;;;;;;;8.40;6.50;;;;;;;7.24;94.23;95818.33;1787106;80;21484;-69
2022/12/27 05:16:46;;;;;;;8.27;6.30;;;;;;;7.20;94.01;95820.95;1787058;80;21006;-69
2022/12/27 05:19:14;;;;;;;7.80;6.27;;;;;;;7.17;94.09;95834.95;1787235;80;21499;-69
2022/12/27 05:27:15;;;;;;;6.43;4.60;;;;;;;7.09;94.61;95844.59;1787203;80;20973;-69
2022/12/27 05:29:42;;;;;;;13.33;7.93;;;;;;;7.00;94.89;95832.34;1786916;80;21479;-68
2022/12/27 05:32:08;;;;;;;12.87;8.13;;;;;;;7.06;94.91;95826.24;1787351;80;20982;-68
2022/12/27 05:34:35;;;;;;;5.93;3.80;;;;;;;7.09;94.80;95833.66;1787133;80;21463;-69
2022/12/27 05:37:01;;;;;;;5.50;3.17;;;;;;;7.10;94.43;95838.46;1787178;80;21029;-69
2022/12/27 05:39:29;;;;;;;3.40;2.90;;;;;;;7.15;94.09;95838.02;1787275;80;21002;-69
2022/12/27 05:41:55;;;;;;;3.17;2.10;;;;;;;7.14;93.80;95842.39;1787153;80;21005;-68
2022/12/27 05:44:22;;;;;;;2.90;2.60;;;;;;;7.15;93.58;95845.45;1786656;80;20973;-69
2022/12/27 05:46:48;;;;;;;3.27;2.60;;;;;;;7.16;93.55;95851.59;1787147;80;21503;-69
2022/12/27 05:49:15;;;;;;;3.00;2.60;;;;;;;7.12;93.31;95853.33;1787100;80;21006;-69
2022/12/27 05:51:41;;;;;;;2.10;1.70;;;;;;;7.05;93.14;95855.52;1786880;80;21054;-69
2022/12/27 05:54:08;;;;;;;2.73;2.30;;;;;;;6.99;93.23;95856.84;1786870;80;21560;-68
2022/12/27 05:56:36;;;;;;;2.77;2.10;;;;;;;7.00;93.53;95865.14;1787248;80;21001;-69
2022/12/27 05:59:03;;;;;;;3.47;2.50;;;;;;;6.99;93.55;95880.90;1786991;80;21526;-69
2022/12/27 06:01:30;;;;;;;2.47;1.97;;;;;;;6.90;93.48;95881.75;1786914;80;21013;-69
2022/12/27 06:03:56;;;;;;;2.87;2.10;;;;;;;6.83;93.13;95878.28;1786667;80;21017;-68
2022/12/27 06:06:23;;;;;;;2.93;1.97;;;;;;;6.81;93.72;95883.08;1787159;80;21319;-69
2022/12/27 06:08:49;;;;;;;3.27;2.27;;;;;;;6.79;93.72;95891.38;1786773;80;21077;-69
2022/12/27 06:11:18;;;;;;;3.00;2.27;;;;;;;6.82;94.16;95896.18;1786863;80;21535;-68
2022/12/27 06:13:52;;;;;;;2.70;2.27;;;;;;;6.90;94.50;95913.23;1786790;80;20994;-69
2022/12/27 06:16:19;;;;;;;;;;;;;;;7.00;94.17;95911.05;1789616;80;21005;-69
2022/12/27 06:18:46;;;;;;;2.70;1.63;;;;;;;7.04;93.76;95920.69;1786694;80;20093;-69
2022/12/27 06:21:17;;;;;;;3.80;3.10;;;;;;;7.04;93.68;95918.06;1787056;80;20986;-68
2022/12/27 06:23:45;;;;;;;4.47;3.13;;;;;;;7.08;93.41;95926.38;1787065;80;21017;-69
2022/12/27 06:26:20;;;;;;;3.57;2.87;;;;;;;7.07;93.31;95924.61;1786858;80;21464;-69
2022/12/27 06:28:48;;;;;;;5.33;2.93;;;;;;;7.08;93.12;95929.00;1787148;80;21001;-69
2022/12/27 06:31:16;;;;;;;5.43;2.93;;;;;;;7.09;93.02;95932.05;1786738;80;20981;-68
2022/12/27 06:33:43;;;;;;;3.43;2.33;;;;;;;7.10;92.89;95931.16;1786758;80;21061;-69
2022/12/27 06:36:14;;;;;;;3.33;2.23;;;;;;;7.09;92.54;95934.67;1787034;80;20974;-68
2022/12/27 06:38:41;;;;;;;3.87;2.53;;;;;;;7.07;92.43;95934.23;1787124;80;21432;-69
2022/12/27 06:41:11;;;;;;;4.00;3.10;;;;;;;7.06;92.58;95950.42;1787087;80;20981;-68
2022/12/27 06:43:38;;;;;;;4.67;2.90;;;;;;;7.05;92.52;95951.72;1787293;80;21507;-69
2022/12/27 06:46:09;;;;;;;3.40;2.60;;;;;;;7.03;92.53;95958.30;1787165;80;20990;-69
2022/12/27 06:48:36;;;;;;;2.73;2.43;;;;;;;6.98;92.33;95957.42;1787385;80;21002;-69
2022/12/27 06:51:05;;;;;;;3.17;2.33;;;;;;;6.96;92.32;95964.86;1787173;80;21010;-68
2022/12/27 06:53:32;;;;;;;2.07;1.70;;;;;;;6.91;92.44;95960.47;1787186;80;21546;-69
2022/12/27 06:56:06;;;;;;;1.70;1.50;;;;;;;6.90;91.92;95951.27;1787194;80;21529;-68
2022/12/27 06:58:32;;;;;;;1.70;1.50;;;;;;;6.93;91.73;95948.67;1787048;80;20986;-69
2022/12/27 07:01:09;;;;;;;1.90;1.63;;;;;;;6.97;91.84;95946.91;1787050;80;21427;-68
2022/12/27 07:03:37;;;;;;;2.30;1.57;;;;;;;6.98;90.97;95947.34;1788112;80;21534;-68
2022/12/27 07:06:08;;;;;;;2.80;2.00;;;;;;;6.97;90.69;95933.80;1801122;80;21517;-68
2022/12/27 07:08:35;;;;;;;5.40;3.93;;;;;;;6.99;90.91;95940.80;1801209;80;21031;-69
2022/12/27 07:11:06;;;;;;;3.83;2.77;;;;;;;6.97;90.96;95939.91;1801071;80;21555;-69
2022/12/27 07:13:36;;;;;;;2.37;1.70;;;;;;;6.92;90.92;95935.97;1801229;80;21069;-69
2022/12/27 07:16:08;;;;;;;1.53;1.10;;;;;;;6.86;90.92;95946.91;1800757;80;21045;-69
2022/12/27 07:18:36;;;;;;;1.73;1.30;;;;;;;6.82;91.00;95942.08;1801416;80;20992;-68
2022/12/27 07:21:06;;;;;;;1.43;1.10;;;;;;;6.84;90.67;95940.34;1801470;80;21013;-69
2022/12/27 07:23:33;;;;;;;1.10;0.90;;;;;;;6.92;89.63;95937.72;1801104;80;20953;-68
2022/12/27 07:26:07;;;;;;;1.87;1.50;;;;;;;6.96;88.42;95944.73;1801216;80;21040;-69
2022/12/27 07:28:34;;;;;;;2.13;1.87;;;;;;;7.02;88.84;95942.55;1800924;80;20989;-69
2022/12/27 07:31:09;;;;;;;0.80;0.80;;;;;;;7.03;88.81;95945.19;1800842;80;20989;-69
2022/12/27 07:33:37;;;;;;;2.90;1.63;;;;;;;7.03;88.08;95925.50;1801338;80;21435;-68
2022/12/27 07:36:07;;;;;;;3.37;1.77;;;;;;;7.09;87.35;95911.51;1800953;80;21095;-68
2022/12/27 07:38:33;;;;;;;3.50;1.70;;;;;;;7.13;87.57;95894.45;1801128;80;21501;-69
2022/12/27 07:41:01;;;;;;;2.43;1.33;;;;;;;7.16;87.40;95906.70;1801286;80;21062;-68
2022/12/27 07:43:33;;;;;;;1.63;1.23;;;;;;;7.18;87.82;95924.61;1801130;80;20953;-68
2022/12/27 07:46:09;;;;;;;1.00;0.90;;;;;;;7.14;87.86;95939.94;1800977;80;21542;-69
2022/12/27 07:48:37;;;;;;;1.53;0.97;;;;;;;7.10;88.05;95946.05;1800856;80;20985;-69
2022/12/27 07:51:04;;;;;;;3.30;1.60;;;;;;;7.14;87.73;95964.86;1800680;80;21574;-69
2022/12/27 07:53:31;;;;;;;1.60;1.40;;;;;;;7.19;87.30;95972.74;1801262;80;20977;-68
2022/12/27 07:55:58;;;;;;;3.05;2.00;;;;;;;7.28;85.97;95995.03;1801038;80;21470;-69
2022/12/27 07:58:25;;;;;;;2.27;1.92;;;;;;;7.27;86.59;95990.23;1800778;80;20989;-69
2022/12/27 08:00:52;;;;;;;2.07;1.87;;;;;;;7.23;86.37;95990.22;1800747;80;21099;-69
2022/12/27 08:03:19;;;;;;;3.43;1.70;;;;;;;7.21;86.30;95998.56;1801059;80;20950;-69
2022/12/27 08:05:49;;;;;;;4.63;2.30;;;;;;;7.21;86.65;96004.67;1793721;80;21032;-69
2022/12/27 08:08:18;;;;;;;2.83;2.43;;;;;;;7.21;86.65;96005.98;1792592;80;21040;-69
2022/12/27 08:10:44;;;;;;;3.60;2.37;;;;;;;7.18;86.63;96005.95;1792577;80;21047;-69
2022/12/27 08:13:11;;;;;;;2.73;2.20;;;;;;;7.19;86.68;96015.60;1792892;80;21440;-69
2022/12/27 08:15:40;;;;;;;2.70;2.10;;;;;;;7.18;86.37;96007.27;1792162;80;21514;-69
2022/12/27 08:18:07;;;;;;;3.20;2.20;;;;;;;7.17;86.28;96010.78;1792653;80;21044;-68
2022/12/27 08:20:35;;;;;;;2.00;1.37;;;;;;;7.20;85.57;96009.91;1792651;80;20993;-69
2022/12/27 08:23:02;;;;;;;2.67;2.10;;;;;;;7.22;85.59;96010.79;1792497;80;21069;-68
2022/12/27 08:25:29;;;;;;;4.17;3.03;;;;;;;7.23;85.51;96017.78;1792804;80;21057;-69
2022/12/27 08:28:07;;;;;;;5.80;4.47;;;;;;;7.27;85.27;96015.16;1793030;80;20958;-69
2022/12/27 08:30:34;;;;;;;6.58;5.00;;;;;;;7.31;85.44;96020.87;1792751;80;21005;-69
2022/12/27 08:33:03;;;;;;;3.33;2.57;;;;;;;7.28;84.54;96026.12;1792676;80;21032;-68
2022/12/27 08:35:30;;;;;;;3.30;2.23;;;;;;;7.26;84.26;96019.98;1792539;80;21017;-69
2022/12/27 08:38:01;;;;;;;5.17;4.57;;;;;;;7.24;84.49;96034.85;1792660;80;20958;-68
2022/12/27 08:40:28;;;;;;;3.03;2.50;;;;;;;7.24;84.65;96033.98;1792287;80;21053;-69
2022/12/27 08:42:54;;;;;;;4.27;3.00;;;;;;;7.24;84.52;96022.17;1792334;80;21100;-69
2022/12/27 08:45:21;;;;;;;3.20;2.40;;;;;;;7.21;84.36;96023.05;1792631;80;21001;-68
2022/12/27 08:47:47;;;;;;;3.53;2.57;;;;;;;7.22;84.17;96051.03;1792729;80;21419;-68
2022/12/27 08:50:14;;;;;;;3.60;2.70;;;;;;;7.22;84.03;96039.66;1792376;80;21116;-69
2022/12/27 08:52:41;;;;;;;3.80;2.50;;;;;;;7.20;83.91;96050.59;1792757;80;21020;-69
2022/12/27 08:55:09;;;;;;;6.93;6.10;;;;;;;7.23;83.94;96037.46;1792406;80;21020;-69
2022/12/27 08:57:35;;;;;;;5.10;3.53;;;;;;;7.19;84.12;96040.98;1792690;80;20989;-68
2022/12/27 09:00:03;;;;;;;4.57;3.40;;;;;;;7.17;84.27;96037.02;1792836;80;21002;-68
2022/12/27 09:02:29;;;;;;;4.40;3.10;;;;;;;7.20;84.09;96046.20;1792636;80;20985;-68
2022/12/27 09:04:56;;;;;;;5.97;3.57;;;;;;;7.17;83.79;96055.39;1792322;80;21009;-69
2022/12/27 09:07:22;;;;;;;5.42;3.27;;;;;;;7.18;83.87;96047.08;1786847;80;21081;-68
2022/12/27 09:09:49;;;;;;;5.47;4.53;;;;;;;7.18;83.69;96032.20;1786832;80;21062;-69
2022/12/27 09:12:15;;;;;;;5.97;4.80;;;;;;;7.21;83.59;96033.98;1787153;80;21475;-68
2022/12/27 09:14:41;;;;;;;4.37;3.50;;;;;;;7.26;83.71;96037.05;1786672;80;20981;-69
2022/12/27 09:17:08;;;;;;;4.90;3.40;;;;;;;7.22;83.01;96025.23;1787228;80;20989;-68
2022/12/27 09:19:35;;;;;;;3.87;2.73;;;;;;;7.27;83.30;96028.29;1787178;80;21460;-68
2022/12/27 09:22:02;;;;;;;3.80;2.67;;;;;;;7.32;82.75;96030.92;1786734;80;21041;-68
2022/12/27 09:24:28;;;;;;;3.83;3.27;;;;;;;7.37;82.00;96018.67;1786887;80;21483;-68
2022/12/27 09:26:55;;;;;;;4.25;3.15;;;;;;;7.41;82.54;96016.91;1786765;80;21005;-68
2022/12/27 09:29:21;;;;;;;3.83;3.20;;;;;;;7.40;81.91;96013.42;1787044;80;21037;-68
2022/12/27 09:31:48;;;;;;;3.40;2.90;;;;;;;7.42;82.51;96014.75;1786746;80;21563;-68
2022/12/27 09:34:14;;;;;;;5.20;3.30;;;;;;;7.40;81.24;96025.23;1786859;80;21029;-69
2022/12/27 09:36:41;;;;;;;3.93;2.77;;;;;;;7.40;81.30;96020.42;1786673;80;20970;-68
2022/12/27 09:39:11;;;;;;;5.13;3.80;;;;;;;7.37;81.25;96022.62;1786814;80;21017;-68
2022/12/27 09:41:51;;;;;;;5.37;3.50;;;;;;;7.35;81.23;96011.23;1786774;80;21810;-68
2022/12/27 09:44:34;;;;;;;4.17;3.55;;;;;;;7.34;81.53;96011.67;1786488;80;21018;-68
2022/12/27 09:47:21;;;;;;;4.58;3.42;;;;;;;7.31;81.49;96019.55;1787044;80;21021;-69
2022/12/27 09:49:59;;;;;;;5.45;3.98;;;;;;;7.34;81.98;95997.23;1786949;80;21053;-68
2022/12/27 09:53:02;;;;;;;4.20;3.60;;;;;;;7.37;80.33;95986.73;1750702;80;22014;-68
2022/12/27 09:55:48;;;;;;;3.87;3.33;;;;;;;7.43;80.54;96005.98;1786660;80;21487;-68
2022/12/27 09:58:49;;;;;;;6.10;4.23;;;;;;;7.46;80.33;96002.04;1786832;80;21124;-68
2022/12/27 10:01:27;;;;;;;4.27;3.40;;;;;;;7.43;80.62;95996.34;1786880;80;21062;-68
2022/12/27 10:03:54;;;;;;;4.97;3.70;;;;;;;7.48;80.43;95997.67;1786468;80;21609;-68
2022/12/27 10:06:41;;;;;;;4.53;3.67;;;;;;;7.50;80.21;96013.86;1786873;80;21570;-68
2022/12/27 10:09:26;;;;;;;5.37;4.87;;;;;;;7.44;80.11;96011.25;1787163;80;21010;-68
2022/12/27 10:12:06;;;;;;;5.00;4.37;;;;;;;7.52;80.52;96014.74;1787335;80;21073;-68
2022/12/27 10:15:16;;;;;;;5.12;4.12;;;;;;;7.62;79.55;96020.88;1787157;80;21073;-68
2022/12/27 10:18:04;;;;;;;4.62;3.80;;;;;;;7.64;78.58;96045.39;1786941;80;20950;-68
2022/12/27 10:20:42;;;;;;;14.45;10.18;;;;;;;7.70;78.85;96037.94;1781544;80;21479;-68
2022/12/27 10:23:14;;;;;;;4.80;3.95;;;;;;;7.64;78.17;96035.33;1786960;80;21009;-68
2022/12/27 10:25:44;;;;;;;33.07;21.40;;;;;;;7.54;76.78;96016.06;1787254;80;21052;-68
2022/12/27 10:28:24;;;;;;;14.50;9.60;;;;;;;7.48;77.62;96016.05;1787223;80;21491;-68
2022/12/27 10:30:51;;;;;;;13.60;6.33;;;;;;;7.38;77.17;96015.16;1787267;80;21032;-68
2022/12/27 10:33:29;;;;;;;5.17;3.95;;;;;;;7.34;76.87;96017.38;1787023;80;21045;-68
2022/12/27 10:35:57;;;;;;;3.92;3.12;;;;;;;7.50;75.86;96019.11;1787217;80;21020;-68
2022/12/27 10:38:26;;;;;;;4.05;3.20;;;;;;;7.87;75.03;96015.61;1787196;80;21013;-68
2022/12/27 10:41:30;;;;;;;8.45;6.87;;;;;;;8.36;73.32;96032.57;1787209;80;20990;-68
2022/12/27 10:43:57;;;;;;;6.30;3.85;;;;;;;8.50;73.49;96022.05;1786950;80;21049;-69
2022/12/27 10:46:32;;;;;;;3.95;3.42;;;;;;;8.42;72.82;96032.60;1786705;80;21044;-68
2022/12/27 10:49:05;;;;;;;4.00;2.95;;;;;;;8.34;72.29;96034.32;1787038;80;21558;-68
2022/12/27 10:51:39;;;;;;;6.22;4.00;;;;;;;8.34;71.04;96036.95;1787330;80;20981;-68
2022/12/27 10:54:17;;;;;;;;;;;;;;;8.32;71.06;96042.23;1789866;80;21009;-69
2022/12/27 10:56:44;;;;;;;8.13;5.03;;;;;;;8.28;70.58;96034.35;1787072;80;20116;-68
2022/12/27 10:59:22;;;;;;;7.35;4.70;;;;;;;8.29;71.48;96037.41;1787272;80;21487;-68
2022/12/27 11:02:03;;;;;;;7.37;4.42;;;;;;;8.23;70.68;96035.23;1787089;80;21085;-68
2022/12/27 11:04:31;;;;;;;5.50;3.62;;;;;;;8.24;71.15;96033.50;1785052;80;21014;-68
2022/12/27 11:07:06;;;;;;;4.50;4.05;;;;;;;8.11;71.32;96033.94;1794729;80;21037;-68
2022/12/27 11:09:37;;;;;;;4.67;3.50;;;;;;;8.23;71.30;96039.62;1800994;80;21499;-69
2022/12/27 11:12:23;;;;;;;5.83;4.25;;;;;;;8.36;72.26;96047.90;1801320;80;21096;-68
2022/12/27 11:14:59;;;;;;;4.03;3.33;;;;;;;8.84;69.32;96032.88;1800902;80;21494;-68
2022/12/27 11:17:42;;;;;;;4.83;3.33;;;;;;;9.23;68.04;96026.07;1800965;80;21020;-68
2022/12/27 11:20:33;;;;;;;4.83;3.67;;;;;;;9.38;67.29;96030.36;1801255;80;21023;-69
2022/12/27 11:23:13;;;;;;;4.35;3.33;;;;;;;9.18;67.29;96039.26;1772291;80;20993;-69
2022/12/27 11:25:56;;;;;;;5.20;3.47;;;;;;;9.54;68.33;96028.91;1801185;80;20957;-69
2022/12/27 11:28:55;;;;;;;4.92;3.62;;;;;;;10.28;63.88;96028.71;1801001;80;21044;-69
2022/12/27 11:31:40;;;;;;;4.55;2.87;;;;;;;10.52;63.82;96013.08;1800523;80;21036;-69
2022/12/27 11:34:24;;;;;;;2.90;2.58;;;;;;;11.34;63.79;96018.14;1800992;80;21479;-69
2022/12/27 11:36:55;;;;;;;3.00;2.47;;;;;;;11.70;58.26;96007.01;1801016;80;21554;-69
2022/12/27 11:39:48;;;;;;;3.20;2.90;;;;;;;11.43;59.45;96017.56;1801306;80;20996;-68
2022/12/27 11:42:38;;;;;;;3.47;2.30;;;;;;;11.23;59.09;96003.78;1801078;80;20996;-69
2022/12/27 11:45:20;;;;;;;3.08;2.52;;;;;;;11.58;59.20;96009.84;1801206;80;21016;-69
2022/12/27 11:48:04;;;;;;;2.90;2.27;;;;;;;11.53;57.23;96014.78;1800465;80;21021;-69
2022/12/27 11:50:52;;;;;;;4.50;3.27;;;;;;;11.44;57.91;96023.70;1772151;80;21036;-69
2022/12/27 11:53:29;;;;;;;2.55;2.33;;;;;;;10.71;57.81;96026.91;1801505;80;21001;-69
2022/12/27 11:56:26;;;;;;;4.50;2.25;;;;;;;10.71;57.81;96026.91;1800490;80;21078;-69
2022/12/27 11:59:28;;;;;;;3.50;2.65;;;;;;;10.73;58.65;96028.64;1800778;80;20974;-68
2022/12/27 12:02:39;;;;;;;3.35;1.87;;;;;;;10.77;59.82;96038.73;1800870;80;21589;-69
2022/12/27 12:05:43;;;;;;;2.83;2.22;;;;;;;10.95;58.68;96031.88;1801503;80;21467;-69
2022/12/27 12:08:35;;;;;;;3.15;2.30;;;;;;;11.01;58.07;96033.14;1788125;80;21052;-69
2022/12/27 12:11:30;;;;;;;3.55;2.60;;;;;;;11.03;58.74;96023.41;1786554;80;21061;-69
2022/12/27 12:14:29;;;;;;;2.98;2.33;;;;;;;11.40;58.97;96021.58;1786867;80;21064;-69
2022/12/27 12:17:16;;;;;;;2.90;1.95;;;;;;;11.47;56.20;96032.48;1786878;80;21468;-69
2022/12/27 12:20:26;;;;;;;3.45;2.20;;;;;;;10.97;56.64;96038.02;1786806;80;21010;-68
2022/12/27 12:23:33;;;;;;;3.02;1.90;;;;;;;10.92;57.75;96033.70;1786952;80;20993;-69
2022/12/27 12:26:23;;;;;;;2.47;1.52;;;;;;;10.61;58.15;96040.69;1786861;80;21121;-68
2022/12/27 12:29:29;;;;;;;1.75;1.50;;;;;;;9.96;58.05;96051.84;1787293;80;21042;-69
2022/12/27 12:32:10;;;;;;;4.22;1.27;;;;;;;9.40;59.22;96056.22;1786901;80;20950;-68
2022/12/27 12:34:54;;;;;;;3.05;1.90;;;;;;;9.12;60.55;96073.50;1786632;80;20986;-69
2022/12/27 12:37:45;;;;;;;2.72;2.52;;;;;;;8.82;61.09;96070.16;1786715;80;21010;-68
2022/12/27 12:40:44;;;;;;;5.75;2.60;;;;;;;8.63;61.43;96082.48;1787088;80;21013;-68
2022/12/27 12:43:40;;;;;;;2.12;1.72;;;;;;;8.44;61.60;96091.30;1786873;80;21490;-68
2022/12/27 12:46:27;;;;;;;2.00;1.80;;;;;;;8.37;62.22;96089.55;1775695;80;21117;-68
2022/12/27 12:49:18;;;;;;;1.72;1.40;;;;;;;8.17;61.07;96092.22;1787045;80;21080;-68
2022/12/27 12:52:25;;;;;;;5.17;2.20;;;;;;;8.02;61.83;96091.79;1786998;80;21487;-68
2022/12/27 12:55:16;;;;;;;4.87;2.67;;;;;;;7.89;62.64;96096.17;1787071;80;21527;-68
2022/12/27 12:58:04;;;;;;;5.08;3.15;;;;;;;7.84;62.89;96091.77;1781748;80;21018;-68
2022/12/27 13:00:45;;;;;;;4.60;2.95;;;;;;;7.75;63.65;96104.48;1787098;80;21005;-68
2022/12/27 13:03:36;;;;;;;3.80;2.60;;;;;;;7.67;63.15;96087.41;1786855;80;21061;-69
2022/12/27 13:06:43;;;;;;;4.03;2.20;;;;;;;7.59;62.97;96097.03;1786328;80;21010;-68
2022/12/27 13:09:30;;;;;;;4.75;3.27;;;;;;;7.53;64.14;96103.58;1787363;80;20982;-68
2022/12/27 13:12:14;;;;;;;5.57;3.23;;;;;;;7.52;64.63;96105.33;1786969;80;21069;-68
2022/12/27 13:14:55;;;;;;;3.92;2.60;;;;;;;7.52;64.50;96107.09;1787226;80;21014;-68
2022/12/27 13:17:55;;;;;;;4.00;2.60;;;;;;;7.47;64.45;96106.20;1786739;80;21523;-69
2022/12/27 13:20:56;;;;;;;4.25;2.42;;;;;;;7.47;64.67;96116.27;1786681;80;21022;-69
2022/12/27 13:23:40;;;;;;;2.40;2.20;;;;;;;7.44;65.06;96121.96;1779709;80;21025;-68
2022/12/27 13:26:33;;;;;;;2.47;1.90;;;;;;;7.28;65.01;96125.86;1786991;80;21401;-69
2022/12/27 13:29:22;;;;;;;2.00;1.77;;;;;;;7.22;65.34;96128.89;1786397;80;21032;-68
2022/12/27 13:32:12;;;;;;;3.37;2.97;;;;;;;7.14;65.70;96125.81;1786795;80;21021;-68
2022/12/27 13:35:23;;;;;;;2.83;2.23;;;;;;;7.11;66.12;96127.55;1769735;80;21002;-69
2022/12/27 13:38:09;;;;;;;2.53;1.70;;;;;;;6.94;66.17;96136.22;1787076;80;21017;-69
2022/12/27 13:41:13;;;;;;;7.00;3.50;;;;;;;6.90;66.42;96143.66;1786343;80;21033;-68
2022/12/27 13:44:05;;;;;;;3.13;2.20;;;;;;;6.83;66.42;96148.44;1786840;80;21029;-68
2022/12/27 13:47:09;;;;;;;2.80;2.10;;;;;;;6.79;66.51;96141.41;1787219;80;20977;-69
2022/12/27 13:49:59;;;;;;;2.90;1.95;;;;;;;6.75;66.35;96144.00;1787186;80;21002;-68
2022/12/27 13:52:58;;;;;;;2.80;2.07;;;;;;;6.65;65.97;96148.31;1787399;80;21001;-69
2022/12/27 13:55:51;;;;;;;2.63;2.10;;;;;;;6.55;66.49;96156.59;1785984;80;21060;-68
2022/12/27 13:58:35;;;;;;;3.92;2.10;;;;;;;6.44;67.10;96164.80;1787358;80;21006;-69
2022/12/27 14:01:30;;;;;;;2.73;1.90;;;;;;;6.27;67.47;96161.65;1785431;80;21012;-69